Alpine Village, Colorado
Current Conditions -  °F | °C
As of 3:14 AM on Friday 31 Oct 2014 (Local Time) from K7BM Reporting Station
Clear Clear  
Wind Chill: 34°   Ceiling: Unl
Heat Index: 34°   Visibility: 10mi
Dew Point: 21°   Wind: 0mph
Humidity: 60%   Direction: NA
Pressure: 30.48"   Gusts: NA
Location:  38.7194°N, 106.276°W
Report Text: K7BM 310914Z AUTO 00000KT 10SM CLR 01/M06 A3048 RMK AO2
Loading
Personal Weather Stations






























Interactive Weather Map New forecast layout! Learn more

10-Day Weather Forecast

Advertisements
Track Severe Weather on mobile